createdAt,value
2023-01-27T00:04:33.314Z,-0.40
2023-01-27T00:09:35.042Z,-0.40
2023-01-27T00:14:36.797Z,-0.40
2023-01-27T00:19:38.532Z,-0.40
2023-01-27T00:24:40.445Z,-0.40
2023-01-27T00:29:42.206Z,-0.50
2023-01-27T00:34:43.930Z,-0.40
2023-01-27T00:39:45.671Z,-0.50
2023-01-27T00:45:07.450Z,-0.50
2023-01-27T00:50:10.042Z,-0.40
2023-01-27T00:55:12.557Z,-0.40
2023-01-27T01:00:15.810Z,-0.40
2023-01-27T01:05:17.922Z,-0.40
2023-01-27T01:10:19.693Z,-0.40
2023-01-27T01:15:21.473Z,-0.50
2023-01-27T01:20:24.454Z,-0.40
2023-01-27T01:25:26.231Z,-0.40
2023-01-27T01:30:28.712Z,-0.50
2023-01-27T01:35:30.526Z,-0.40
2023-01-27T01:40:33.502Z,-0.40
2023-01-27T01:45:36.589Z,-0.40
2023-01-27T01:50:42.942Z,-0.40
2023-01-27T01:55:45.887Z,-0.50
2023-01-27T02:00:47.763Z,-0.40
2023-01-27T02:05:52.956Z,-0.40
2023-01-27T02:10:54.991Z,-0.40
2023-01-27T02:15:56.835Z,-0.40
2023-01-27T02:20:59.045Z,-0.40
2023-01-27T02:26:05.670Z,-0.40
2023-01-27T02:31:08.562Z,-0.40
2023-01-27T02:36:16.342Z,-0.60
2023-01-27T02:41:23.260Z,-0.60
2023-01-27T02:46:25.417Z,-0.70
2023-01-27T02:51:27.631Z,-0.70
2023-01-27T02:56:29.589Z,-0.70
2023-01-27T03:01:32.816Z,-0.70
2023-01-27T03:06:35.296Z,-0.70
2023-01-27T03:11:55.677Z,-0.70
2023-01-27T03:17:16.630Z,-0.70
2023-01-27T03:22:18.378Z,-0.70
2023-01-27T03:27:20.207Z,-0.60
2023-01-27T03:32:46.717Z,-0.60
2023-01-27T03:38:31.543Z,-0.50
2023-01-27T03:43:51.727Z,-0.60
2023-01-27T03:48:55.403Z,-0.60
2023-01-27T03:53:57.197Z,-0.60
2023-01-27T03:58:58.906Z,-0.70
2023-01-27T04:04:19.305Z,-0.70
2023-01-27T04:09:26.504Z,-0.60
2023-01-27T04:14:32.614Z,-0.70
2023-01-27T04:19:34.614Z,-0.60
2023-01-27T04:24:36.513Z,-0.60
2023-01-27T04:29:43.169Z,-0.70
2023-01-27T04:34:45.642Z,-0.70
2023-01-27T04:39:47.432Z,-0.60
2023-01-27T04:44:49.238Z,-0.60
2023-01-27T04:49:50.973Z,-0.60
2023-01-27T04:54:52.712Z,-0.70
2023-01-27T04:59:54.478Z,-0.70
2023-01-27T05:04:56.322Z,-0.70
2023-01-27T05:09:58.482Z,-0.60
2023-01-27T05:15:00.223Z,-0.60
2023-01-27T05:20:01.964Z,-0.60
2023-01-27T05:25:03.953Z,-0.60
2023-01-27T05:30:06.469Z,-0.60
2023-01-27T05:35:08.519Z,-0.60
2023-01-27T05:40:11.218Z,-0.50
2023-01-27T05:45:13.352Z,-0.50
2023-01-27T05:50:15.599Z,-0.60
2023-01-27T05:55:17.316Z,-0.70
2023-01-27T06:00:19.683Z,-0.70
2023-01-27T06:05:21.453Z,-0.60
2023-01-27T06:10:23.238Z,-0.60
2023-01-27T06:15:24.944Z,-0.70
2023-01-27T06:20:26.748Z,-0.70
2023-01-27T06:25:28.599Z,-0.60
2023-01-27T06:30:30.409Z,-0.50
2023-01-27T06:35:33.811Z,-0.60
2023-01-27T06:40:35.825Z,-0.70
2023-01-27T06:45:37.548Z,-0.70
2023-01-27T06:50:39.338Z,-0.70
2023-01-27T06:55:44.847Z,-0.70
2023-01-27T07:00:46.583Z,-0.60
2023-01-27T07:05:49.479Z,-0.60
2023-01-27T07:10:51.254Z,-0.60
2023-01-27T07:15:56.685Z,-0.60
2023-01-27T07:20:58.464Z,-0.70
2023-01-27T07:26:04.310Z,-0.70
2023-01-27T07:31:07.509Z,-0.60
2023-01-27T07:36:09.667Z,-0.60
2023-01-27T07:41:11.370Z,-0.50
2023-01-27T07:46:13.134Z,-0.50
2023-01-27T07:51:15.334Z,-0.40
2023-01-27T07:56:17.057Z,-0.40
2023-01-27T08:01:18.863Z,-0.40
2023-01-27T08:06:20.845Z,-0.30
2023-01-27T08:11:22.573Z,-0.40
2023-01-27T08:16:24.389Z,-0.30
2023-01-27T08:21:27.535Z,-0.30
2023-01-27T08:26:29.356Z,-0.20
2023-01-27T08:31:31.149Z,-0.20
2023-01-27T08:36:33.113Z,-0.10
2023-01-27T08:41:34.829Z,-0.10
2023-01-27T08:46:36.590Z,-0.10
2023-01-27T08:51:38.389Z,-0.10
2023-01-27T08:56:40.113Z,0.00
2023-01-27T09:01:42.068Z,0.10
2023-01-27T09:06:45.187Z,0.10
2023-01-27T09:11:47.316Z,0.30
2023-01-27T09:16:49.149Z,0.30
2023-01-27T09:21:50.920Z,0.40
2023-01-27T09:26:52.673Z,0.40
2023-01-27T09:31:54.461Z,0.50
2023-01-27T09:37:08.320Z,0.50
2023-01-27T09:42:48.998Z,0.50
2023-01-27T09:48:28.212Z,0.50
2023-01-27T09:54:07.678Z,0.50
2023-01-27T09:59:51.425Z,0.60
2023-01-27T10:05:12.675Z,0.60
2023-01-27T10:10:30.563Z,0.60
2023-01-27T10:16:01.826Z,0.60
2023-01-27T10:21:29.821Z,0.60
2023-01-27T10:26:34.484Z,0.60
2023-01-27T10:31:41.260Z,0.50
2023-01-27T10:37:00.422Z,0.50
2023-01-27T10:42:36.066Z,0.50
2023-01-27T10:47:47.829Z,0.50
2023-01-27T10:53:00.119Z,0.40
2023-01-27T10:58:23.417Z,0.40
2023-01-27T11:03:43.827Z,0.40
2023-01-27T11:08:50.230Z,0.40
2023-01-27T11:14:02.732Z,0.40
2023-01-27T11:19:26.091Z,0.40
2023-01-27T11:24:46.405Z,0.40
2023-01-27T11:30:18.414Z,0.40
2023-01-27T11:35:21.402Z,0.40
2023-01-27T11:40:32.500Z,0.50
2023-01-27T11:45:36.550Z,0.50
2023-01-27T11:50:38.422Z,0.50
2023-01-27T11:55:48.850Z,0.50
2023-01-27T12:01:12.509Z,0.50
2023-01-27T12:06:41.136Z,0.60
2023-01-27T12:11:42.867Z,0.70
2023-01-27T12:16:48.411Z,0.70
2023-01-27T12:21:54.072Z,0.70
2023-01-27T12:26:56.918Z,0.70
2023-01-27T12:32:00.722Z,0.70
2023-01-27T12:37:05.846Z,0.70
2023-01-27T12:42:38.390Z,0.70
2023-01-27T12:47:40.209Z,0.70
2023-01-27T12:52:41.962Z,0.70
2023-01-27T12:57:43.894Z,0.80
2023-01-27T13:02:47.178Z,0.80
2023-01-27T13:07:52.730Z,0.90
2023-01-27T13:13:01.331Z,0.90
2023-01-27T13:18:13.775Z,0.90
2023-01-27T13:23:29.697Z,1.00
2023-01-27T13:28:53.626Z,1.00
2023-01-27T13:34:03.489Z,1.00
2023-01-27T13:39:18.429Z,0.90
2023-01-27T13:44:45.141Z,0.80
2023-01-27T13:50:22.085Z,0.80
2023-01-27T13:55:35.630Z,0.70
2023-01-27T14:00:58.951Z,0.70
2023-01-27T14:06:00.663Z,0.70
2023-01-27T14:11:22.833Z,0.70
2023-01-27T14:16:39.329Z,0.70
2023-01-27T14:21:53.846Z,0.70
2023-01-27T14:27:08.306Z,0.60
2023-01-27T14:32:18.490Z,0.50
2023-01-27T14:37:30.143Z,0.50
2023-01-27T14:43:11.443Z,0.50
2023-01-27T14:48:31.857Z,0.50
2023-01-27T14:53:52.073Z,0.40
2023-01-27T14:59:12.864Z,0.30
2023-01-27T15:04:26.867Z,0.40
2023-01-27T15:09:59.938Z,0.30
2023-01-27T15:15:41.963Z,0.20
2023-01-27T15:21:41.507Z,0.20
2023-01-27T15:26:44.013Z,0.10
2023-01-27T15:32:17.899Z,0.10
2023-01-27T15:37:25.168Z,0.10
2023-01-27T15:42:56.241Z,0.10
2023-01-27T15:48:13.496Z,0.10
2023-01-27T15:53:22.564Z,0.10
2023-01-27T15:58:42.805Z,0.00
2023-01-27T16:03:48.785Z,0.00
2023-01-27T16:09:00.237Z,0.00
2023-01-27T16:14:14.346Z,0.00
2023-01-27T16:19:31.086Z,0.00
2023-01-27T16:24:51.727Z,-0.10
2023-01-27T16:30:06.426Z,-0.10
2023-01-27T16:35:17.473Z,-0.10
2023-01-27T16:40:24.045Z,-0.10
2023-01-27T16:45:40.408Z,-0.10
2023-01-27T16:50:44.023Z,-0.10
2023-01-27T16:56:00.129Z,-0.10
2023-01-27T17:01:02.235Z,-0.10
2023-01-27T17:06:17.176Z,-0.10
2023-01-27T17:11:32.921Z,-0.10
2023-01-27T17:16:37.253Z,-0.10
2023-01-27T17:21:47.173Z,-0.20
2023-01-27T17:26:56.106Z,-0.20
2023-01-27T17:31:58.025Z,-0.20
2023-01-27T17:37:17.896Z,-0.30
2023-01-27T17:42:21.087Z,-0.30
2023-01-27T17:47:23.600Z,-0.30
2023-01-27T17:52:27.587Z,-0.30
2023-01-27T17:57:32.795Z,-0.30
2023-01-27T18:02:48.355Z,-0.30
2023-01-27T18:07:50.404Z,-0.30
2023-01-27T18:12:53.283Z,-0.30
2023-01-27T18:17:59.365Z,-0.30
2023-01-27T18:23:05.902Z,-0.40
2023-01-27T18:28:08.477Z,-0.40
2023-01-27T18:33:12.793Z,-0.40
2023-01-27T18:38:25.873Z,-0.40
2023-01-27T18:43:27.644Z,-0.40
2023-01-27T18:48:33.323Z,-0.40
2023-01-27T18:53:35.257Z,-0.40
2023-01-27T18:58:38.375Z,-0.30
2023-01-27T19:03:40.245Z,-0.30
2023-01-27T19:08:42.414Z,-0.40
2023-01-27T19:13:45.297Z,-0.30
2023-01-27T19:18:47.129Z,-0.30
2023-01-27T19:23:49.484Z,-0.30
2023-01-27T19:28:54.949Z,-0.40
2023-01-27T19:33:57.827Z,-0.40
2023-01-27T19:39:10.415Z,-0.40
2023-01-27T19:44:13.375Z,-0.40
2023-01-27T19:49:17.350Z,-0.40
2023-01-27T19:54:19.093Z,-0.40
2023-01-27T19:59:20.830Z,-0.40
2023-01-27T20:04:22.614Z,-0.40
2023-01-27T20:09:24.387Z,-0.40
2023-01-27T20:14:27.089Z,-0.40
2023-01-27T20:19:29.351Z,-0.40
2023-01-27T20:24:31.085Z,-0.30
2023-01-27T20:29:35.277Z,-0.40
2023-01-27T20:34:38.504Z,-0.40
2023-01-27T20:39:40.233Z,-0.40
2023-01-27T20:44:41.961Z,-0.40
2023-01-27T20:49:44.151Z,-0.40
2023-01-27T20:54:45.924Z,-0.40
2023-01-27T20:59:48.546Z,-0.40
2023-01-27T21:04:50.311Z,-0.40
2023-01-27T21:09:53.526Z,-0.40
2023-01-27T21:14:58.812Z,-0.40
2023-01-27T21:20:00.589Z,-0.40
2023-01-27T21:25:02.309Z,-0.40
2023-01-27T21:30:04.413Z,-0.40
2023-01-27T21:35:06.514Z,-0.40
2023-01-27T21:40:09.475Z,-0.40
2023-01-27T21:45:13.362Z,-0.40
2023-01-27T21:50:15.585Z,-0.40
2023-01-27T21:55:19.944Z,-0.30
2023-01-27T22:00:24.716Z,-0.30
2023-01-27T22:05:28.242Z,-0.30
2023-01-27T22:10:30.639Z,-0.30
2023-01-27T22:15:32.797Z,-0.30
2023-01-27T22:20:34.530Z,-0.40
2023-01-27T22:25:36.293Z,-0.40
2023-01-27T22:30:39.621Z,-0.50
2023-01-27T22:35:41.452Z,-0.50
2023-01-27T22:40:43.170Z,-0.50
2023-01-27T22:45:45.366Z,-0.50
2023-01-27T22:50:47.177Z,-0.50
2023-01-27T22:56:00.626Z,-0.50
2023-01-27T23:01:06.388Z,-0.50
2023-01-27T23:06:09.087Z,-0.50
2023-01-27T23:11:11.104Z,-0.50
2023-01-27T23:16:12.984Z,-0.40
2023-01-27T23:21:14.857Z,-0.40
2023-01-27T23:26:16.887Z,-0.30
2023-01-27T23:31:18.650Z,-0.30
2023-01-27T23:36:20.535Z,-0.30
2023-01-27T23:41:22.894Z,-0.30
2023-01-27T23:46:25.439Z,-0.30
2023-01-27T23:51:27.211Z,-0.30
2023-01-27T23:56:28.969Z,-0.30
